Vance Air Force Base Enid US
ICAO: KEND
IATA: END
Category: Large
Scheduled Services: No

Elevation: 1307 ft
TransAlt. 18000 ft.

Airport Communications:
APP:118.075
ATIS:115.4
CLNC DEL:22.54
DEP:120.525
GND:121.8
PMSV METRO:34.255
PTD:37.22
TWR:124.05

KEND Zoom In..

If you have problems with the map follow the link
https://www.worldairports.se/pages/airport.php?
ICAO=KEND

Runways:

(A) RW 13 length 4971 ft width 150 ft
---- / hdg 130

(B) RW 17C length 9217 ft width 150 ft
ILS 108.90 / hdg 175

(C) RW 17L length 5024 ft width 150 ft
---- / hdg 175

(D) RW 17R length 9217 ft width 150 ft
---- / hdg 175

(E) RW 31 length 4971 ft width 150 ft
---- / hdg 310

(F) RW 35C length 9217 ft width 150 ft
ILS 110.10 / hdg 355

(G) RW 35L length 9217 ft width 150 ft
---- / hdg 355

(H) RW 35R length 5024 ft width 150 ft
---- / hdg 355

Location; KEND
Day. 14 / Time. 11.56 Zulu
* Altimeter: 30.47
* Temperature: -06° c. -21.2°f.
* Wind from: 000° Speed 00 kn.
Dewpoint: -09° c.
Visibility: 10 Statute Miles.
Clouds: Clear (automated report).

KEND 141156Z AUTO 00000KT 10SM CLR M06/M09 A3047 RMK AO2 SLP337 60000 T10641090 11047 21066 53000 PWINO VISNO RWY35C $


Wind - Calm.

 
 
jpsmedia.com for Web Design worldairports.se 2018   terms of use